Time;durP1;ratioP1;P1;durP2;ratioP2;P2;SDS_P1;SDS_P2;PMS_P1;PMS_P2;Temp;Humidity;BMP_temperature;BMP_pressure;BME280_temperature;BME280_humidity;BME280_pressure;Samples;Min_cycle;Max_cycle;Signal;HPM_P1;HPM_P2
2023/10/25 00:00:52;;;;;;;9.53;4.37;;;;;;;;;;5014120;28;20591;-66
2023/10/25 00:03:18;;;;;;;7.57;4.30;;;;;;;;;;5014172;28;20537;-66
2023/10/25 00:05:45;;;;;;;9.40;4.80;;;;;;;;;;5013671;28;20585;-66
2023/10/25 00:08:11;;;;;;;12.20;6.20;;;;;;;;;;5012367;28;20180;-66
2023/10/25 00:10:37;;;;;;;14.65;7.20;;;;;;;;;;5012782;28;20725;-65
2023/10/25 00:13:03;;;;;;;11.52;6.43;;;;;;;;;;5012304;28;20385;-66
2023/10/25 00:15:29;;;;;;;12.82;6.90;;;;;;;;;;5010903;28;20472;-66
2023/10/25 00:17:55;;;;;;;16.73;7.43;;;;;;;;;;5010935;28;20389;-66
2023/10/25 00:20:21;;;;;;;9.23;5.70;;;;;;;;;;5013316;28;20279;-66
2023/10/25 00:22:47;;;;;;;13.27;6.17;;;;;;;;;;5012029;28;20653;-66
2023/10/25 00:25:13;;;;;;;10.17;5.30;;;;;;;;;;5013402;28;20576;-66
2023/10/25 00:27:39;;;;;;;7.57;5.20;;;;;;;;;;5013749;28;20265;-66
2023/10/25 00:30:05;;;;;;;9.73;5.80;;;;;;;;;;5013637;28;20179;-66
2023/10/25 00:32:31;;;;;;;10.13;6.00;;;;;;;;;;5014285;28;20203;-65
2023/10/25 00:34:57;;;;;;;10.33;6.00;;;;;;;;;;5013748;28;20318;-66
2023/10/25 00:37:23;;;;;;;10.50;5.53;;;;;;;;;;5013295;28;20211;-67
2023/10/25 00:39:49;;;;;;;12.97;6.10;;;;;;;;;;5012415;28;20179;-66
2023/10/25 00:42:15;;;;;;;8.87;6.47;;;;;;;;;;5013322;28;20254;-66
2023/10/25 00:44:41;;;;;;;11.13;6.50;;;;;;;;;;5012842;28;20243;-66
2023/10/25 00:47:08;;;;;;;9.93;6.17;;;;;;;;;;5012870;28;20230;-66
2023/10/25 00:49:34;;;;;;;10.27;5.83;;;;;;;;;;5011582;28;20238;-66
2023/10/25 00:52:00;;;;;;;12.40;7.17;;;;;;;;;;5012802;28;20199;-67
2023/10/25 00:54:26;;;;;;;14.13;6.30;;;;;;;;;;5012958;28;20203;-67
2023/10/25 00:56:53;;;;;;;9.43;6.60;;;;;;;;;;5011432;28;20682;-67
2023/10/25 00:59:19;;;;;;;14.67;7.13;;;;;;;;;;5012932;28;20172;-67
2023/10/25 01:01:47;;;;;;;8.03;6.37;;;;;;;;;;5012699;28;20187;-66
2023/10/25 01:04:13;;;;;;;12.73;6.93;;;;;;;;;;5013014;28;20176;-67
2023/10/25 01:06:39;;;;;;;10.80;6.80;;;;;;;;;;5012687;28;20187;-67
2023/10/25 01:09:05;;;;;;;13.37;7.47;;;;;;;;;;5013004;28;20178;-67
2023/10/25 01:11:32;;;;;;;12.37;7.07;;;;;;;;;;5012603;28;20301;-67
2023/10/25 01:13:58;;;;;;;9.87;7.03;;;;;;;;;;5011542;28;20179;-67
2023/10/25 01:16:24;;;;;;;13.67;7.70;;;;;;;;;;5012847;28;20200;-66
2023/10/25 01:18:50;;;;;;;14.33;7.70;;;;;;;;;;5013277;28;20176;-67
2023/10/25 01:21:16;;;;;;;14.13;7.83;;;;;;;;;;5012645;28;20226;-67
2023/10/25 01:23:42;;;;;;;12.30;8.40;;;;;;;;;;5011394;28;20180;-67
2023/10/25 01:26:08;;;;;;;16.93;8.37;;;;;;;;;;5011348;28;20282;-67
2023/10/25 01:28:34;;;;;;;13.53;8.10;;;;;;;;;;5012840;28;20188;-66
2023/10/25 01:31:00;;;;;;;10.50;7.93;;;;;;;;;;5012583;28;20270;-67
2023/10/25 01:33:26;;;;;;;19.43;8.10;;;;;;;;;;5012389;28;20184;-67
2023/10/25 01:35:52;;;;;;;15.43;8.40;;;;;;;;;;5011152;28;20282;-67
2023/10/25 01:38:18;;;;;;;14.13;8.50;;;;;;;;;;5012296;28;20203;-67
2023/10/25 01:40:44;;;;;;;12.50;8.70;;;;;;;;;;5012355;28;20176;-66
2023/10/25 01:43:10;;;;;;;14.30;9.00;;;;;;;;;;5011669;28;20176;-67
2023/10/25 01:45:36;;;;;;;16.17;8.87;;;;;;;;;;5010755;28;20211;-66
2023/10/25 01:48:02;;;;;;;15.03;8.47;;;;;;;;;;5012718;28;20178;-67
2023/10/25 01:50:28;;;;;;;15.87;8.37;;;;;;;;;;5010951;28;20180;-66
2023/10/25 01:52:54;;;;;;;14.77;8.70;;;;;;;;;;5015943;28;20238;-67
2023/10/25 01:55:20;;;;;;;11.67;8.60;;;;;;;;;;5015871;28;20250;-67
2023/10/25 01:57:46;;;;;;;13.37;8.73;;;;;;;;;;5014755;28;20186;-67
2023/10/25 02:00:12;;;;;;;15.70;8.97;;;;;;;;;;5015854;28;20642;-67
2023/10/25 02:02:38;;;;;;;14.63;8.93;;;;;;;;;;5015849;28;20550;-67
2023/10/25 02:05:04;;;;;;;13.07;8.90;;;;;;;;;;5014369;28;20208;-67
2023/10/25 02:07:30;;;;;;;13.83;9.27;;;;;;;;;;5016257;28;20238;-66
2023/10/25 02:09:56;;;;;;;14.60;9.40;;;;;;;;;;5015611;28;20187;-67
2023/10/25 02:12:22;;;;;;;13.67;9.97;;;;;;;;;;5014798;28;20614;-67
2023/10/25 02:14:48;;;;;;;15.27;9.37;;;;;;;;;;5015482;28;20196;-67
2023/10/25 02:17:14;;;;;;;12.97;9.63;;;;;;;;;;5016046;28;20225;-67
2023/10/25 02:19:40;;;;;;;15.60;9.13;;;;;;;;;;5015692;28;20180;-69
2023/10/25 02:22:06;;;;;;;13.83;8.73;;;;;;;;;;5014163;28;20191;-68
2023/10/25 02:24:32;;;;;;;15.23;9.27;;;;;;;;;;5015362;28;20200;-66
2023/10/25 02:26:58;;;;;;;19.27;10.47;;;;;;;;;;5015919;28;20222;-67
2023/10/25 02:29:24;;;;;;;17.70;10.43;;;;;;;;;;5015389;28;20220;-67
2023/10/25 02:31:51;;;;;;;13.23;9.63;;;;;;;;;;5015181;28;20295;-68
2023/10/25 02:34:17;;;;;;;17.40;9.70;;;;;;;;;;5013913;28;20314;-66
2023/10/25 02:36:43;;;;;;;19.57;10.10;;;;;;;;;;5015147;28;20183;-67
2023/10/25 02:39:10;;;;;;;12.70;9.03;;;;;;;;;;5015245;28;20704;-67
2023/10/25 02:41:36;;;;;;;16.33;9.73;;;;;;;;;;5013808;28;20638;-67
2023/10/25 02:44:02;;;;;;;15.80;10.73;;;;;;;;;;5013665;28;20699;-66
2023/10/25 02:46:28;;;;;;;17.70;10.70;;;;;;;;;;5014972;28;20208;-67
2023/10/25 02:48:54;;;;;;;19.00;9.73;;;;;;;;;;5015194;28;20183;-67
2023/10/25 02:51:20;;;;;;;14.87;9.60;;;;;;;;;;5014876;28;20192;-66
2023/10/25 02:53:46;;;;;;;16.03;9.93;;;;;;;;;;5014952;28;20195;-67
2023/10/25 02:56:12;;;;;;;11.90;9.37;;;;;;;;;;5031207;22;20702;-70
2023/10/25 02:58:38;;;;;;;16.47;10.37;;;;;;;;;;5014399;28;20179;-70
2023/10/25 03:01:05;;;;;;;12.37;9.73;;;;;;;;;;5015460;28;20191;-70
2023/10/25 03:03:31;;;;;;;14.47;10.20;;;;;;;;;;5014915;28;20186;-70
2023/10/25 03:05:58;;;;;;;14.37;9.13;;;;;;;;;;5013970;28;20203;-70
2023/10/25 03:08:24;;;;;;;17.50;10.27;;;;;;;;;;5014081;28;20184;-70
2023/10/25 03:10:50;;;;;;;12.03;9.10;;;;;;;;;;5016440;28;20188;-69
2023/10/25 03:13:16;;;;;;;16.27;8.80;;;;;;;;;;5015523;28;20176;-70
2023/10/25 03:15:42;;;;;;;16.03;9.57;;;;;;;;;;5015988;28;20199;-70
2023/10/25 03:18:08;;;;;;;17.33;9.03;;;;;;;;;;5015085;28;20237;-70
2023/10/25 03:20:34;;;;;;;14.47;10.00;;;;;;;;;;5015320;28;20180;-70
2023/10/25 03:23:00;;;;;;;12.57;9.10;;;;;;;;;;5014795;28;20267;-70
2023/10/25 03:25:26;;;;;;;11.60;9.90;;;;;;;;;;5013558;28;20203;-70
2023/10/25 03:27:52;;;;;;;13.40;9.30;;;;;;;;;;5014866;28;20180;-70
2023/10/25 03:30:18;;;;;;;14.07;8.53;;;;;;;;;;5014910;28;20182;-70
2023/10/25 03:32:44;;;;;;;13.40;8.80;;;;;;;;;;5014830;28;20207;-70
2023/10/25 03:35:11;;;;;;;16.63;8.40;;;;;;;;;;5014812;28;20696;-70
2023/10/25 03:37:40;;;;;;;14.50;8.07;;;;;;;;;;5014776;28;20184;-70
2023/10/25 03:40:09;;;;;;;10.43;7.70;;;;;;;;;;5013354;28;20183;-70
2023/10/25 03:42:35;;;;;;;12.80;8.40;;;;;;;;;;5012201;28;20564;-70
2023/10/25 03:45:02;;;;;;;16.67;7.90;;;;;;;;;;5014712;28;20211;-70
2023/10/25 03:47:28;;;;;;;9.03;6.77;;;;;;;;;;5013431;28;20211;-70
2023/10/25 03:49:54;;;;;;;11.97;7.30;;;;;;;;;;5014534;28;20649;-70
2023/10/25 03:52:20;;;;;;;7.50;6.53;;;;;;;;;;5013073;28;20215;-70
2023/10/25 03:54:45;;;;;;;14.57;6.93;;;;;;;;;;5014302;28;20211;-71
2023/10/25 03:57:11;;;;;;;12.18;7.95;;;;;;;;;;5013723;28;20380;-69
2023/10/25 03:59:37;;;;;;;11.65;7.75;;;;;;;;;;5011675;28;20381;-69
2023/10/25 04:02:03;;;;;;;12.43;6.43;;;;;;;;;;5014342;28;20188;-69
2023/10/25 04:04:29;;;;;;;12.00;7.15;;;;;;;;;;5012111;28;20381;-69
2023/10/25 04:06:56;;;;;;;11.37;6.60;;;;;;;;;;5012932;28;20279;-70
2023/10/25 04:09:22;;;;;;;10.87;5.93;;;;;;;;;;5014218;28;20172;-69
2023/10/25 04:11:48;;;;;;;10.93;4.93;;;;;;;;;;5014234;28;20711;-69
2023/10/25 04:14:14;;;;;;;9.27;5.70;;;;;;;;;;5013521;28;20682;-70
2023/10/25 04:16:40;;;;;;;13.53;5.50;;;;;;;;;;5012437;28;20246;-70
2023/10/25 04:19:06;;;;;;;10.10;4.93;;;;;;;;;;5014113;28;20654;-69
2023/10/25 04:21:32;;;;;;;11.83;5.43;;;;;;;;;;5014182;28;20612;-69
2023/10/25 04:23:58;;;;;;;12.02;6.05;;;;;;;;;;5011407;28;20790;-69
2023/10/25 04:26:24;;;;;;;11.23;5.77;;;;;;;;;;5012707;28;20388;-69
2023/10/25 04:28:50;;;;;;;8.77;5.30;;;;;;;;;;5013846;28;20254;-70
2023/10/25 04:31:18;;;;;;;10.00;4.23;;;;;;;;;;5012451;28;20211;-69
2023/10/25 04:33:43;;;;;;;6.80;4.93;;;;;;;;;;5013759;28;20172;-70
2023/10/25 04:36:09;;;;;;;8.77;4.73;;;;;;;;;;5012564;28;20204;-69
2023/10/25 04:38:35;;;;;;;8.60;4.57;;;;;;;;;;5013534;28;20176;-69
2023/10/25 04:41:01;;;;;;;7.35;5.57;;;;;;;;;;5011163;28;20475;-69
2023/10/25 04:43:28;;;;;;;7.73;4.97;;;;;;;;;;5013632;28;20199;-69
2023/10/25 04:45:54;;;;;;;9.27;5.30;;;;;;;;;;5012633;28;20200;-69
2023/10/25 04:48:20;;;;;;;13.27;5.37;;;;;;;;;;5012483;28;20262;-69
2023/10/25 04:50:46;;;;;;;10.97;4.37;;;;;;;;;;5013583;28;20214;-70
2023/10/25 04:53:12;;;;;;;7.40;4.73;;;;;;;;;;5013832;28;20295;-69
2023/10/25 04:55:38;;;;;;;8.80;4.97;;;;;;;;;;5012203;28;20677;-69
2023/10/25 04:58:05;;;;;;;16.43;5.60;;;;;;;;;;5012194;28;20182;-70
2023/10/25 05:00:34;;;;;;;7.20;4.73;;;;;;;;;;5013453;28;20287;-70
2023/10/25 05:03:00;;;;;;;7.37;4.73;;;;;;;;;;5012287;28;20666;-69
2023/10/25 05:05:26;;;;;;;8.63;5.43;;;;;;;;;;5013459;28;20267;-69
2023/10/25 05:07:52;;;;;;;9.50;5.47;;;;;;;;;;5012253;28;20240;-69
2023/10/25 05:10:19;;;;;;;7.70;5.13;;;;;;;;;;5013837;28;20183;-70
2023/10/25 05:12:46;;;;;;;8.63;5.73;;;;;;;;;;5013904;28;20286;-69
2023/10/25 05:15:16;;;;;;;6.33;5.47;;;;;;;;;;5013614;28;20671;-69
2023/10/25 05:17:43;;;;;;;11.05;6.18;;;;;;;;;;5012614;28;20961;-70
2023/10/25 05:20:09;;;;;;;13.80;5.40;;;;;;;;;;5013945;28;20164;-69
2023/10/25 05:22:36;;;;;;;11.00;5.77;;;;;;;;;;5013178;28;20557;-69
2023/10/25 05:25:06;;;;;;;11.97;6.23;;;;;;;;;;5011853;28;20211;-70
2023/10/25 05:27:33;;;;;;;8.87;5.47;;;;;;;;;;5016826;28;20179;-69
2023/10/25 05:30:03;;;;;;;8.60;5.93;;;;;;;;;;5016134;28;20187;-70
2023/10/25 05:32:30;;;;;;;15.23;6.27;;;;;;;;;;5015918;28;20207;-69
2023/10/25 05:34:57;;;;;;;8.73;5.83;;;;;;;;;;5017258;28;20219;-70
2023/10/25 05:37:23;;;;;;;8.73;5.43;;;;;;;;;;5017057;28;20179;-69
2023/10/25 05:39:49;;;;;;;11.63;6.23;;;;;;;;;;5017695;28;20198;-69
2023/10/25 05:42:18;;;;;;;12.30;6.20;;;;;;;;;;5017028;28;20215;-69
2023/10/25 05:44:44;;;;;;;11.50;6.27;;;;;;;;;;5016917;28;20204;-69
2023/10/25 05:47:10;;;;;;;10.97;6.37;;;;;;;;;;5016977;28;20288;-69
2023/10/25 05:49:36;;;;;;;12.47;6.50;;;;;;;;;;5016764;28;20184;-69
2023/10/25 05:52:02;;;;;;;12.43;6.20;;;;;;;;;;5016791;28;20203;-69
2023/10/25 05:54:28;;;;;;;10.87;6.27;;;;;;;;;;5017094;28;20208;-69
2023/10/25 05:56:54;;;;;;;10.13;6.10;;;;;;;;;;5016753;28;20156;-69
2023/10/25 05:59:20;;;;;;;10.60;5.63;;;;;;;;;;5016662;28;20195;-69
2023/10/25 06:01:50;;;;;;;8.73;6.60;;;;;;;;;;5016502;28;20650;-69
2023/10/25 06:04:17;;;;;;;12.50;6.17;;;;;;;;;;5015332;28;20192;-67
2023/10/25 06:06:44;;;;;;;11.50;6.20;;;;;;;;;;5016648;28;20191;-69
2023/10/25 06:09:11;;;;;;;9.23;5.90;;;;;;;;;;5016616;28;20207;-69
2023/10/25 06:11:38;;;;;;;11.30;6.17;;;;;;;;;;5016334;28;20666;-69
2023/10/25 06:14:04;;;;;;;8.90;5.50;;;;;;;;;;5017341;28;20259;-69
2023/10/25 06:16:30;;;;;;;9.87;5.80;;;;;;;;;;5015033;28;20258;-69
2023/10/25 06:18:56;;;;;;;8.93;5.87;;;;;;;;;;5016298;28;20598;-69
2023/10/25 06:21:22;;;;;;;10.20;6.03;;;;;;;;;;5016563;28;20184;-69
2023/10/25 06:23:48;;;;;;;11.90;5.83;;;;;;;;;;5016499;28;20186;-69
2023/10/25 06:26:14;;;;;;;11.50;5.83;;;;;;;;;;5014786;28;20208;-70
2023/10/25 06:28:40;;;;;;;11.97;6.00;;;;;;;;;;5015346;28;20191;-70
2023/10/25 06:31:05;;;;;;;11.90;5.57;;;;;;;;;;5016273;28;20278;-70
2023/10/25 06:33:31;;;;;;;6.43;5.47;;;;;;;;;;5014910;28;20202;-70
2023/10/25 06:36:01;;;;;;;7.30;5.20;;;;;;;;;;5016078;28;20199;-70
2023/10/25 06:38:27;;;;;;;12.73;5.93;;;;;;;;;;5015182;28;20270;-70
2023/10/25 06:40:53;;;;;;;9.23;5.80;;;;;;;;;;5015806;28;20250;-69
2023/10/25 06:43:19;;;;;;;11.60;7.93;;;;;;;;;;5014496;28;20656;-70
2023/10/25 06:45:48;;;;;;;10.27;5.80;;;;;;;;;;5015811;28;20192;-69
2023/10/25 06:48:15;;;;;;;10.87;5.20;;;;;;;;;;5015811;28;20200;-70
2023/10/25 06:50:43;;;;;;;11.33;5.60;;;;;;;;;;5014484;28;20657;-69
2023/10/25 06:53:09;;;;;;;13.60;5.53;;;;;;;;;;5015414;28;20218;-70
2023/10/25 06:55:35;;;;;;;9.97;4.87;;;;;;;;;;5015219;28;20238;-69
2023/10/25 06:58:02;;;;;;;9.90;4.87;;;;;;;;;;5014371;28;20180;-70
2023/10/25 07:00:28;;;;;;;7.17;4.50;;;;;;;;;;5014022;28;20183;-70
2023/10/25 07:02:59;;;;;;;9.00;4.10;;;;;;;;;;5015503;28;20187;-70
2023/10/25 07:05:25;;;;;;;8.10;4.60;;;;;;;;;;5015307;28;20199;-70
2023/10/25 07:07:52;;;;;;;10.57;4.90;;;;;;;;;;5015736;28;20180;-70
2023/10/25 07:10:18;;;;;;;13.27;5.33;;;;;;;;;;5014384;28;20207;-69
2023/10/25 07:12:44;;;;;;;8.03;4.20;;;;;;;;;;5015269;28;20283;-70
2023/10/25 07:15:11;;;;;;;7.30;4.43;;;;;;;;;;5015071;28;20275;-70
2023/10/25 07:17:44;;;;;;;12.70;5.47;;;;;;;;;;5013904;28;20271;-69
2023/10/25 07:20:11;;;;;;;7.77;4.57;;;;;;;;;;5015227;28;20191;-70
2023/10/25 07:22:38;;;;;;;10.00;4.13;;;;;;;;;;5015386;28;20180;-70
2023/10/25 07:25:04;;;;;;;6.10;4.10;;;;;;;;;;5013568;28;20266;-70
2023/10/25 07:27:30;;;;;;;15.27;4.10;;;;;;;;;;5013836;28;20617;-70
2023/10/25 07:29:56;;;;;;;10.60;3.27;;;;;;;;;;5013713;28;20214;-70
2023/10/25 07:32:22;;;;;;;6.03;3.67;;;;;;;;;;5014610;28;20203;-70
2023/10/25 07:34:48;;;;;;;10.93;5.13;;;;;;;;;;5013174;28;20203;-70
2023/10/25 07:37:15;;;;;;;10.93;4.40;;;;;;;;;;5013513;28;20727;-69
2023/10/25 07:39:41;;;;;;;6.13;3.73;;;;;;;;;;5014728;28;20283;-70
2023/10/25 07:42:07;;;;;;;9.57;3.50;;;;;;;;;;5014591;28;20255;-70
2023/10/25 07:44:34;;;;;;;5.10;3.40;;;;;;;;;;5014608;28;20291;-70
2023/10/25 07:47:00;;;;;;;5.33;2.70;;;;;;;;;;5014840;28;20182;-70
2023/10/25 07:49:26;;;;;;;5.70;2.67;;;;;;;;;;5014578;28;20206;-69
2023/10/25 07:51:54;;;;;;;6.47;2.90;;;;;;;;;;5014440;28;20689;-70
2023/10/25 07:54:20;;;;;;;9.97;3.33;;;;;;;;;;5012986;28;20689;-69
2023/10/25 07:56:46;;;;;;;6.93;3.00;;;;;;;;;;5012960;28;20287;-70
2023/10/25 07:59:13;;;;;;;6.47;2.90;;;;;;;;;;5013165;28;20203;-70
2023/10/25 08:01:39;;;;;;;8.77;3.50;;;;;;;;;;5014559;28;20218;-70
2023/10/25 08:04:05;;;;;;;5.77;3.20;;;;;;;;;;5014472;28;20204;-69
2023/10/25 08:06:31;;;;;;;10.37;3.70;;;;;;;;;;5014142;28;20253;-69
2023/10/25 08:08:58;;;;;;;8.67;3.10;;;;;;;;;;5014275;28;20234;-69
2023/10/25 08:11:24;;;;;;;9.93;3.40;;;;;;;;;;5014060;28;20203;-68
2023/10/25 08:13:50;;;;;;;6.13;2.83;;;;;;;;;;5014442;28;20175;-69
2023/10/25 08:16:16;;;;;;;10.43;3.47;;;;;;;;;;5014062;28;20207;-69
2023/10/25 08:18:42;;;;;;;11.60;3.00;;;;;;;;;;5014467;28;20176;-69
2023/10/25 08:21:17;;;;;;;7.97;3.30;;;;;;;;;;5012791;28;20186;-69
2023/10/25 08:23:45;;;;;;;3.40;2.30;;;;;;;;;;5014393;28;20164;-70
2023/10/25 08:26:11;;;;;;;8.27;3.10;;;;;;;;;;5012890;28;20196;-70
2023/10/25 08:28:37;;;;;;;8.07;2.90;;;;;;;;;;5013819;28;20587;-70
2023/10/25 08:31:10;;;;;;;14.00;3.00;;;;;;;;;;5012456;28;20184;-69
2023/10/25 08:33:36;;;;;;;5.60;2.60;;;;;;;;;;5012451;28;20257;-70
2023/10/25 08:36:03;;;;;;;7.83;2.73;;;;;;;;;;5012205;28;20200;-71
2023/10/25 08:38:29;;;;;;;7.07;2.90;;;;;;;;;;5013806;28;20176;-70
2023/10/25 08:41:07;;;;;;;7.27;3.20;;;;;;;;;;5013764;28;20172;-70
2023/10/25 08:43:34;;;;;;;8.83;2.90;;;;;;;;;;5012318;28;20185;-70
2023/10/25 08:46:03;;;;;;;6.70;3.00;;;;;;;;;;5012234;28;20214;-69
2023/10/25 08:48:29;;;;;;;8.97;2.87;;;;;;;;;;5013544;28;20182;-70
2023/10/25 08:50:56;;;;;;;10.23;4.17;;;;;;;;;;5012280;28;20242;-70
2023/10/25 08:53:25;;;;;;;13.53;4.17;;;;;;;;;;5013671;28;20211;-70
2023/10/25 08:55:52;;;;;;;7.00;3.20;;;;;;;;;;5013572;28;20291;-70
2023/10/25 08:58:18;;;;;;;11.07;4.87;;;;;;;;;;5013941;28;20184;-69
2023/10/25 09:00:44;;;;;;;22.40;7.63;;;;;;;;;;5012902;28;20634;-69
2023/10/25 09:03:30;;;;;;;16.57;7.33;;;;;;;;;;5013661;28;20188;-69
2023/10/25 09:05:56;;;;;;;18.07;7.07;;;;;;;;;;5038092;22;20223;-69
2023/10/25 09:08:24;;;;;;;18.60;6.73;;;;;;;;;;5011758;28;20702;-68
2023/10/25 09:11:03;;;;;;;10.17;4.23;;;;;;;;;;5013052;28;20179;-68
2023/10/25 09:13:30;;;;;;;9.93;3.47;;;;;;;;;;5012507;28;20656;-68
2023/10/25 09:16:06;;;;;;;6.40;2.87;;;;;;;;;;5013112;28;20200;-68
2023/10/25 09:18:33;;;;;;;6.03;2.63;;;;;;;;;;5013108;28;20180;-68
2023/10/25 09:21:00;;;;;;;4.87;2.67;;;;;;;;;;5011738;28;20180;-68
2023/10/25 09:23:28;;;;;;;4.67;2.40;;;;;;;;;;5013291;28;20607;-68
2023/10/25 09:25:54;;;;;;;2.90;2.17;;;;;;;;;;5012705;28;20203;-68
2023/10/25 09:28:30;;;;;;;4.80;2.27;;;;;;;;;;5011797;28;20656;-68
2023/10/25 09:31:00;;;;;;;6.90;2.37;;;;;;;;;;5011794;28;20664;-68
2023/10/25 09:33:30;;;;;;;2.70;1.90;;;;;;;;;;5013045;28;20180;-68
2023/10/25 09:35:56;;;;;;;6.17;2.07;;;;;;;;;;5013061;28;20277;-68
2023/10/25 09:38:22;;;;;;;3.17;2.00;;;;;;;;;;5012919;28;20172;-68
2023/10/25 09:40:49;;;;;;;5.63;2.23;;;;;;;;;;5013501;28;20207;-68
2023/10/25 09:43:18;;;;;;;4.80;2.53;;;;;;;;;;5012735;28;20190;-68
2023/10/25 09:45:48;;;;;;;4.17;2.13;;;;;;;;;;5011749;28;20331;-69
2023/10/25 09:48:16;;;;;;;6.07;2.40;;;;;;;;;;5011580;28;20287;-69
2023/10/25 09:50:45;;;;;;;4.50;2.67;;;;;;;;;;5011066;28;20211;-69
2023/10/25 09:53:12;;;;;;;4.20;2.30;;;;;;;;;;5012394;28;20211;-70
2023/10/25 09:55:41;;;;;;;3.90;2.50;;;;;;;;;;5011212;28;20260;-70
2023/10/25 09:58:10;;;;;;;6.30;2.30;;;;;;;;;;5011215;28;20184;-72
2023/10/25 10:00:37;;;;;;;5.47;2.83;;;;;;;;;;5011150;28;20559;-70
2023/10/25 10:03:21;;;;;;;7.80;2.60;;;;;;;;;;5012562;28;20207;-70
2023/10/25 10:05:47;;;;;;;11.20;3.57;;;;;;;;;;5012183;28;20254;-71
2023/10/25 10:08:17;;;;;;;9.27;3.80;;;;;;;;;;5011276;28;20267;-70
2023/10/25 10:10:56;;;;;;;6.93;3.37;;;;;;;;;;5012467;28;20214;-70
2023/10/25 10:13:23;;;;;;;8.30;3.00;;;;;;;;;;5015484;28;20195;-72
2023/10/25 10:16:02;;;;;;;4.73;2.40;;;;;;;;;;5014522;28;20200;-72
2023/10/25 10:18:29;;;;;;;4.30;2.27;;;;;;;;;;5016198;28;20591;-71
2023/10/25 10:20:59;;;;;;;5.57;2.57;;;;;;;;;;5014513;28;20187;-70
2023/10/25 10:23:35;;;;;;;4.20;1.73;;;;;;;;;;5014730;28;20180;-71
2023/10/25 10:26:02;;;;;;;4.70;2.10;;;;;;;;;;5015806;28;20195;-70
2023/10/25 10:28:46;;;;;;;2.07;1.80;;;;;;;;;;5016404;28;20180;-71
2023/10/25 10:31:13;;;;;;;2.63;2.00;;;;;;;;;;5015694;28;20187;-70
2023/10/25 10:33:46;;;;;;;4.23;2.30;;;;;;;;;;5016446;28;20183;-70
2023/10/25 10:36:23;;;;;;;5.57;2.43;;;;;;;;;;5015736;28;20199;-70
2023/10/25 10:39:08;;;;;;;2.90;1.93;;;;;;;;;;5015585;28;20665;-71
2023/10/25 10:41:34;;;;;;;5.07;2.13;;;;;;;;;;5014319;28;20195;-68
2023/10/25 10:44:00;;;;;;;4.07;1.97;;;;;;;;;;5014278;28;20541;-70
2023/10/25 10:46:28;;;;;;;3.70;2.00;;;;;;;;;;5013990;28;20200;-69
2023/10/25 10:48:56;;;;;;;2.53;2.03;;;;;;;;;;5014183;28;20563;-71
2023/10/25 10:51:22;;;;;;;2.80;2.30;;;;;;;;;;5015337;28;20198;-71
2023/10/25 10:53:49;;;;;;;4.17;2.23;;;;;;;;;;5015128;28;20259;-70
2023/10/25 10:56:15;;;;;;;4.80;2.47;;;;;;;;;;5013949;28;20204;-70
2023/10/25 10:58:41;;;;;;;3.77;2.00;;;;;;;;;;5014903;28;20176;-70
2023/10/25 11:01:08;;;;;;;5.83;2.10;;;;;;;;;;5015551;28;20199;-70
2023/10/25 11:03:37;;;;;;;2.93;2.07;;;;;;;;;;5015607;28;20178;-70
2023/10/25 11:06:04;;;;;;;3.63;2.03;;;;;;;;;;5014001;28;20215;-70
2023/10/25 11:08:32;;;;;;;7.13;2.07;;;;;;;;;;5015490;28;20168;-70
2023/10/25 11:10:58;;;;;;;3.93;2.17;;;;;;;;;;5015276;28;20187;-69
2023/10/25 11:13:24;;;;;;;3.47;2.20;;;;;;;;;;5015271;28;20203;-70
2023/10/25 11:16:00;;;;;;;5.50;2.87;;;;;;;;;;5015872;28;20196;-69
2023/10/25 11:18:26;;;;;;;5.63;2.60;;;;;;;;;;5013939;28;20189;-70
2023/10/25 11:20:52;;;;;;;3.37;2.77;;;;;;;;;;5015250;28;20520;-71
2023/10/25 11:23:19;;;;;;;3.50;2.30;;;;;;;;;;5014212;28;20209;-71
2023/10/25 11:25:45;;;;;;;3.70;2.77;;;;;;;;;;5015805;28;20207;-69
2023/10/25 11:28:12;;;;;;;3.80;2.80;;;;;;;;;;5020385;28;20198;-71
2023/10/25 11:30:41;;;;;;;5.13;3.10;;;;;;;;;;5018776;28;20615;-71
2023/10/25 11:33:07;;;;;;;4.37;2.90;;;;;;;;;;5020980;28;20207;-70
2023/10/25 11:35:35;;;;;;;6.77;4.33;;;;;;;;;;5021506;28;20645;-70
2023/10/25 11:38:02;;;;;;;9.93;3.30;;;;;;;;;;5018658;28;20180;-72
2023/10/25 11:40:35;;;;;;;6.70;3.20;;;;;;;;;;5019794;28;20207;-71
2023/10/25 11:43:01;;;;;;;5.27;3.57;;;;;;;;;;5016469;28;20180;-71
2023/10/25 11:45:27;;;;;;;8.40;4.20;;;;;;;;;;5014676;28;20263;-72
2023/10/25 11:47:54;;;;;;;9.07;5.20;;;;;;;;;;5014697;28;20187;-71
2023/10/25 11:50:20;;;;;;;10.00;6.53;;;;;;;;;;5014493;28;20180;-72
2023/10/25 11:52:46;;;;;;;9.60;6.60;;;;;;;;;;5014243;28;20314;-72
2023/10/25 11:55:12;;;;;;;13.37;6.73;;;;;;;;;;5014222;28;20217;-71
2023/10/25 11:57:39;;;;;;;11.27;6.77;;;;;;;;;;5014071;28;20200;-71
2023/10/25 12:00:08;;;;;;;12.37;7.13;;;;;;;;;;5013279;28;20229;-71
2023/10/25 12:02:34;;;;;;;10.10;6.00;;;;;;;;;;5012963;28;20184;-71
2023/10/25 12:05:01;;;;;;;12.63;6.50;;;;;;;;;;5014354;28;20249;-73
2023/10/25 12:07:27;;;;;;;13.47;6.00;;;;;;;;;;5013745;28;20284;-73
2023/10/25 12:09:53;;;;;;;17.43;6.63;;;;;;;;;;5013903;28;20259;-71
2023/10/25 12:12:20;;;;;;;8.80;4.80;;;;;;;;;;5014011;28;20204;-73
2023/10/25 12:14:46;;;;;;;16.90;7.67;;;;;;;;;;5012603;28;20180;-73
2023/10/25 12:17:12;;;;;;;18.70;10.03;;;;;;;;;;5012726;28;20670;-71
2023/10/25 12:19:42;;;;;;;15.07;9.33;;;;;;;;;;5012662;28;20180;-73
2023/10/25 12:22:09;;;;;;;13.53;6.50;;;;;;;;;;5012480;28;20199;-73
2023/10/25 12:24:36;;;;;;;11.73;6.00;;;;;;;;;;5013813;28;20199;-73
2023/10/25 12:27:02;;;;;;;10.33;5.10;;;;;;;;;;5014300;28;20705;-72
2023/10/25 12:29:28;;;;;;;9.00;5.37;;;;;;;;;;5013759;28;20625;-73
2023/10/25 12:31:54;;;;;;;4.80;4.10;;;;;;;;;;5013358;28;20291;-73
2023/10/25 12:34:20;;;;;;;6.40;3.70;;;;;;;;;;5015722;28;20178;-73
2023/10/25 12:36:46;;;;;;;7.90;4.53;;;;;;;;;;5011302;28;20587;-73
2023/10/25 12:39:13;;;;;;;9.87;5.20;;;;;;;;;;5012259;28;20183;-74
2023/10/25 12:41:39;;;;;;;12.00;6.20;;;;;;;;;;5013572;28;20176;-73
2023/10/25 12:44:08;;;;;;;13.93;7.77;;;;;;;;;;5013149;28;20662;-72
2023/10/25 12:46:34;;;;;;;13.20;7.47;;;;;;;;;;5012008;28;20285;-73
2023/10/25 12:49:00;;;;;;;18.30;7.93;;;;;;;;;;5015538;28;20647;-72
2023/10/25 12:51:26;;;;;;;27.10;11.43;;;;;;;;;;5013644;28;20187;-72
2023/10/25 12:53:52;;;;;;;21.80;9.40;;;;;;;;;;5011800;28;20190;-72
2023/10/25 12:56:18;;;;;;;23.17;8.70;;;;;;;;;;5013440;28;20199;-74
2023/10/25 12:58:44;;;;;;;14.73;7.17;;;;;;;;;;5013542;28;20191;-74
2023/10/25 13:01:10;;;;;;;15.47;7.70;;;;;;;;;;5011703;28;20180;-74
2023/10/25 13:03:36;;;;;;;17.70;8.33;;;;;;;;;;5011675;28;20183;-74
2023/10/25 13:06:03;;;;;;;15.93;7.73;;;;;;;;;;5013603;28;20634;-73
2023/10/25 13:08:29;;;;;;;17.43;8.10;;;;;;;;;;5013066;28;20172;-74
2023/10/25 13:10:55;;;;;;;18.93;8.67;;;;;;;;;;5013112;28;20605;-73
2023/10/25 13:13:21;;;;;;;21.07;9.37;;;;;;;;;;5015119;28;20210;-73
2023/10/25 13:15:47;;;;;;;17.47;7.60;;;;;;;;;;5011435;28;20222;-74
2023/10/25 13:18:14;;;;;;;9.83;5.47;;;;;;;;;;5012841;28;20175;-73
2023/10/25 13:20:40;;;;;;;6.40;4.70;;;;;;;;;;5012933;28;20255;-72
2023/10/25 13:23:06;;;;;;;6.67;4.13;;;;;;;;;;5013231;28;20207;-75
2023/10/25 13:25:32;;;;;;;8.33;5.07;;;;;;;;;;5011716;28;20194;-74
2023/10/25 13:27:58;;;;;;;7.60;5.13;;;;;;;;;;5012957;28;20184;-71
2023/10/25 13:30:25;;;;;;;9.20;5.03;;;;;;;;;;5012935;28;20186;-75
2023/10/25 13:32:51;;;;;;;8.07;4.93;;;;;;;;;;5011447;28;20203;-74
2023/10/25 13:35:17;;;;;;;7.10;6.03;;;;;;;;;;5013314;28;20206;-71
2023/10/25 13:37:43;;;;;;;8.33;4.80;;;;;;;;;;5011245;28;20203;-73
2023/10/25 13:40:09;;;;;;;9.83;5.40;;;;;;;;;;5012734;28;20199;-74
2023/10/25 13:42:35;;;;;;;10.23;4.80;;;;;;;;;;5013053;28;20180;-75
2023/10/25 13:45:01;;;;;;;9.33;4.70;;;;;;;;;;5011543;28;20184;-73
2023/10/25 13:47:27;;;;;;;6.73;4.40;;;;;;;;;;5012841;28;20211;-73
2023/10/25 13:49:53;;;;;;;9.37;4.90;;;;;;;;;;5016780;28;20182;-74
2023/10/25 13:52:20;;;;;;;6.00;3.90;;;;;;;;;;5015513;28;20212;-73
2023/10/25 13:54:46;;;;;;;5.00;3.53;;;;;;;;;;5018102;28;20167;-74
2023/10/25 13:57:12;;;;;;;7.67;4.00;;;;;;;;;;5021517;28;20210;-74
2023/10/25 13:59:38;;;;;;;5.83;3.13;;;;;;;;;;5021311;28;20203;-72
2023/10/25 14:02:04;;;;;;;3.83;3.27;;;;;;;;;;5022297;28;20234;-74
2023/10/25 14:04:33;;;;;;;6.17;3.47;;;;;;;;;;5016946;28;20704;-73
2023/10/25 14:06:59;;;;;;;4.67;3.60;;;;;;;;;;5016527;28;20629;-74
2023/10/25 14:09:25;;;;;;;5.90;4.23;;;;;;;;;;5016399;28;20215;-73
2023/10/25 14:11:52;;;;;;;5.00;3.73;;;;;;;;;;5014952;28;20677;-73
2023/10/25 14:14:18;;;;;;;4.57;3.87;;;;;;;;;;5018698;28;20183;-73
2023/10/25 14:16:44;;;;;;;6.47;4.00;;;;;;;;;;5014589;28;20290;-73
2023/10/25 14:19:10;;;;;;;6.47;3.97;;;;;;;;;;5015035;28;20610;-72
2023/10/25 14:21:40;;;;;;;5.30;4.00;;;;;;;;;;5014807;28;20260;-73
2023/10/25 14:24:07;;;;;;;5.87;4.43;;;;;;;;;;5016155;28;20183;-72
2023/10/25 14:26:33;;;;;;;7.73;4.73;;;;;;;;;;5014559;28;20677;-73
2023/10/25 14:28:59;;;;;;;5.70;4.53;;;;;;;;;;5014412;28;20269;-72
2023/10/25 14:31:25;;;;;;;5.00;4.40;;;;;;;;;;5015734;28;20187;-73
2023/10/25 14:33:52;;;;;;;8.30;4.70;;;;;;;;;;5016610;28;20250;-71